Kirov, Russia
Current Conditions -  °F | °C
As of 11:30 AM on Saturday 20 Dec 2014 (Local Time) from UWKS Reporting Station
Overcast Overcast  
Wind Chill: 20°   Ceiling: 800
Heat Index: 32°   Visibility: 6mi
Dew Point: 30°   Wind: 20mph
Humidity: 93%   Direction: 210°SSW
Pressure: 29.56"   Gusts: NA
Location:  58.6°N, 49.66°E
Report Text: UWKS 200730Z 21009MPS 9999 BKN008CB OVC066 00/M01 Q1001 TEMPO1500 SHSN BLSN OVC005CB RMK QFE737 24490340
Loading
Personal Weather Stations






























Interactive Weather Map New forecast layout! Learn more

10-Day Weather Forecast

Advertisements
Track Severe Weather on mobile